CYGX

Gillam Airport

Gillam, Manitoba, Canada
METAR CYGX 232300Z 09004KT 050V130 15SM FEW120 M26/M29 A3031 RMK AS1 AS TR SLP289
Observed Flight Rules
Jan-23 @ 23:00 UTC (32 minutes ago) Visual Flight Rules
Wind Visibility Clouds
90° at 4 knots 15 miles
  • Few at 12,000' AGL
Temperatures Readings
Current -26°C / -15°F
Dewpoint -29°C / -20°F
Humidity 76%
Altimeter 30.31" Hg
Pressure 1028.9 hPa
Elevation 145
METAR CYGX 232300Z 09004KT 050V130 15SM FEW120 M26/M29 A3031 RMK AS1 AS TR SLP289
Observed Flight Rules
Jan-23 @ 23:00 UTC
(32 minutes ago)
VFR
Wind Visibility
90° at 4 knots 15 miles
Clouds
  • Few at 12,000' AGL
Temperature Dewpoint
-26°C / -15°F -29°C / -20°F
Humidity Altimeter Pressure
76% 30.31" Hg 1028.9 hPa